Time;durP1;ratioP1;P1;durP2;ratioP2;P2;SDS_P1;SDS_P2;PMS_P1;PMS_P2;Temp;Humidity;BMP_temperature;BMP_pressure;BME280_temperature;BME280_humidity;BME280_pressure;Samples;Min_cycle;Max_cycle;Signal;HPM_P1;HPM_P2
2022/03/14 00:04:28;;;;;;;48.55;20.68;;;;;;;5.21;50.81;100224.39;4365202;79;43781;-77
2022/03/14 00:10:29;;;;;;;45.67;20.72;;;;;;;5.44;49.47;100226.70;4374820;80;43911;-77
2022/03/14 00:16:33;;;;;;;43.75;20.32;;;;;;;5.30;51.08;100229.54;4449787;78;43769;-77
2022/03/14 00:22:37;;;;;;;47.85;21.17;;;;;;;5.12;51.76;100236.86;4383210;79;43746;-76
2022/03/14 00:28:38;;;;;;;46.00;19.50;;;;;;;5.13;51.40;100234.04;4401133;79;43787;-77
2022/03/14 00:34:39;;;;;;;46.28;20.50;;;;;;;4.90;53.12;100241.02;4461263;80;43755;-75
2022/03/14 00:40:40;;;;;;;42.05;18.10;;;;;;;4.86;52.39;100236.52;4452428;80;43558;-76
2022/03/14 00:46:43;;;;;;;41.58;18.15;;;;;;;4.92;52.17;100236.35;4450665;80;43235;-76
2022/03/14 00:52:45;;;;;;;39.35;17.20;;;;;;;4.94;51.67;100239.69;4412589;80;44409;-78
2022/03/14 00:58:46;;;;;;;44.60;19.55;;;;;;;4.79;53.03;100237.67;4445227;80;43803;-77
2022/03/14 01:04:48;;;;;;;43.70;19.57;;;;;;;4.88;52.29;100237.17;4436939;80;43907;-76
2022/03/14 01:10:50;;;;;;;46.53;20.10;;;;;;;4.88;52.82;100245.98;4393968;80;43797;-77
2022/03/14 01:16:53;;;;;;;43.33;19.30;;;;;;;4.79;53.20;100241.67;4385126;81;43752;-77
2022/03/14 01:22:54;;;;;;;37.58;18.12;;;;;;;4.91;52.04;100244.02;4365881;81;44478;-77
2022/03/14 01:28:56;;;;;;;41.90;18.40;;;;;;;4.79;52.81;100239.48;4366895;80;42945;-77
2022/03/14 01:34:58;;;;;;;44.80;20.30;;;;;;;4.76;52.89;100249.97;4358780;80;43797;-77
2022/03/14 01:40:59;;;;;;;43.73;20.75;;;;;;;4.82;53.07;100253.33;4366170;80;43775;-77
2022/03/14 01:47:01;;;;;;;42.40;18.05;;;;;;;4.96;51.29;100257.19;4373440;80;43243;-77
2022/03/14 01:53:02;;;;;;;44.53;19.05;;;;;;;4.64;52.90;100260.11;4370468;81;43709;-77
2022/03/14 01:59:03;;;;;;;46.05;20.90;;;;;;;4.48;53.92;100269.37;4402221;81;43751;-77
2022/03/14 02:05:06;;;;;;;47.55;19.85;;;;;;;4.49;54.65;100265.70;4406452;81;43756;-76
2022/03/14 02:11:07;;;;;;;44.08;19.77;;;;;;;4.49;54.45;100278.54;4375374;81;43796;-77
2022/03/14 02:17:12;;;;;;;42.38;19.90;;;;;;;4.34;55.23;100279.64;4385749;79;43793;-82
2022/03/14 02:23:13;;;;;;;46.37;20.07;;;;;;;4.43;54.54;100277.84;4382960;80;28496;-81
2022/03/14 02:29:14;;;;;;;42.50;20.20;;;;;;;4.38;54.97;100282.83;4370101;80;43749;-82
2022/03/14 02:35:16;;;;;;;40.67;20.35;;;;;;;4.13;56.45;100284.02;4385563;80;43752;-80
2022/03/14 02:41:18;;;;;;;45.65;20.12;;;;;;;4.42;55.36;100294.30;4378251;80;43748;-80
2022/03/14 02:47:20;;;;;;;42.83;19.00;;;;;;;4.08;57.34;100292.47;4389628;80;43582;-82
2022/03/14 02:53:22;;;;;;;41.75;18.85;;;;;;;4.05;57.35;100303.44;4387638;80;43700;-82
2022/03/14 02:59:23;;;;;;;41.13;19.00;;;;;;;4.28;55.72;100301.56;4374080;80;43701;-82
2022/03/14 03:05:25;;;;;;;43.70;19.12;;;;;;;4.16;56.32;100301.84;4386202;81;43795;-81
2022/03/14 03:11:26;;;;;;;39.98;19.15;;;;;;;3.95;57.55;100304.05;4425567;78;44000;-80
2022/03/14 03:17:27;;;;;;;47.13;21.02;;;;;;;4.07;57.17;100300.12;4443566;79;43791;-80
2022/03/14 03:23:30;;;;;;;42.13;17.73;;;;;;;4.01;57.66;100306.91;4418179;80;44449;-79
2022/03/14 03:29:31;;;;;;;41.28;19.05;;;;;;;4.00;57.94;100309.72;4411693;78;43756;-80
2022/03/14 03:35:33;;;;;;;45.55;19.77;;;;;;;3.87;58.26;100321.62;4423416;79;43787;-81
2022/03/14 03:41:34;;;;;;;45.00;21.77;;;;;;;3.72;59.28;100333.82;4362236;81;43810;-81
2022/03/14 03:47:35;;;;;;;54.18;22.07;;;;;;;3.81;58.24;100332.05;4368454;81;44103;-81
2022/03/14 03:53:36;;;;;;;45.38;21.87;;;;;;;3.50;60.86;100355.91;4338062;81;43776;-81
2022/03/14 03:59:38;;;;;;;48.95;22.10;;;;;;;3.67;59.34;100351.57;4336897;81;44517;-80
2022/03/14 04:05:40;;;;;;;46.53;20.82;;;;;;;3.73;59.34;100355.44;4326698;81;43717;-80
2022/03/14 04:11:42;;;;;;;47.23;22.22;;;;;;;3.53;60.58;100354.27;4461950;78;44078;-81
2022/03/14 04:17:43;;;;;;;47.95;22.13;;;;;;;3.49;61.06;100372.86;4451415;78;43751;-81
2022/03/14 04:23:45;;;;;;;49.55;22.42;;;;;;;3.56;60.55;100366.44;4454875;78;44449;-80
2022/03/14 04:29:46;;;;;;;53.17;23.70;;;;;;;3.67;58.96;100363.54;4352598;80;44060;-80
2022/03/14 04:35:47;;;;;;;47.08;21.52;;;;;;;3.66;59.57;100369.00;4362337;80;43814;-80
2022/03/14 04:41:49;;;;;;;44.15;20.55;;;;;;;3.69;59.45;100370.02;4381153;80;43799;-80
2022/03/14 04:47:50;;;;;;;49.42;24.10;;;;;;;3.43;61.38;100369.47;4379336;81;44470;-80
2022/03/14 04:53:51;;;;;;;54.27;22.75;;;;;;;3.35;61.92;100377.70;4362599;81;44119;-79
2022/03/14 04:59:53;;;;;;;43.42;21.02;;;;;;;3.29;62.76;100388.09;4370039;81;44224;-80
2022/03/14 05:05:54;;;;;;;46.37;21.40;;;;;;;3.28;62.35;100386.42;4335029;81;43811;-79
2022/03/14 05:11:55;;;;;;;47.33;20.08;;;;;;;3.44;61.25;100395.06;4460237;78;43845;-78
2022/03/14 05:18:01;;;;;;;44.10;19.70;;;;;;;3.42;61.75;100399.19;4453884;78;43789;-79
2022/03/14 05:24:02;;;;;;;47.10;20.40;;;;;;;3.24;62.68;100409.81;4379830;80;28490;-79
2022/03/14 05:30:06;;;;;;;42.73;21.02;;;;;;;3.38;62.37;100406.29;4366276;81;43737;-78
2022/03/14 05:36:08;;;;;;;43.30;19.97;;;;;;;3.51;60.98;100406.78;4365072;81;28496;-78
2022/03/14 05:42:10;;;;;;;49.13;23.18;;;;;;;3.53;61.41;100411.45;4364703;81;45387;-79
2022/03/14 05:48:11;;;;;;;50.38;22.40;;;;;;;3.57;61.64;100415.46;4451640;78;44506;-79
2022/03/14 05:54:12;;;;;;;49.67;23.32;;;;;;;3.62;62.09;100417.19;4420328;79;44466;-77
2022/03/14 06:00:19;;;;;;;51.85;22.45;;;;;;;3.68;62.31;100413.56;4422320;79;43752;-77
2022/03/14 06:06:20;;;;;;;56.37;24.10;;;;;;;3.78;61.80;100414.84;4394923;80;44206;-79
2022/03/14 06:12:27;;;;;;;55.75;25.80;;;;;;;3.99;60.58;100414.50;4403226;79;43236;-78
2022/03/14 06:18:29;;;;;;;50.67;23.65;;;;;;;4.06;60.10;100416.89;4408349;80;44486;-80
2022/03/14 06:24:31;;;;;;;54.45;25.05;;;;;;;4.21;60.01;100418.51;4393644;80;44128;-81
2022/03/14 06:30:32;;;;;;;55.33;24.35;;;;;;;4.04;60.23;100430.34;4453604;78;44122;-79
2022/03/14 06:36:34;;;;;;;53.95;25.35;;;;;;;4.46;58.50;100422.17;4386432;80;44128;-80
2022/03/14 06:42:39;;;;;;;55.35;25.97;;;;;;;5.61;53.51;100423.29;4455738;78;43255;-80
2022/03/14 06:48:40;;;;;;;50.05;24.60;;;;;;;5.39;53.67;100426.39;4459497;78;44485;-80
2022/03/14 06:54:41;;;;;;;50.00;24.60;;;;;;;5.47;53.08;100430.09;4436327;78;44536;-75
2022/03/14 07:00:43;;;;;;;52.78;24.52;;;;;;;5.57;52.75;100441.45;4434768;78;44020;-74
2022/03/14 07:06:45;;;;;;;53.50;23.95;;;;;;;5.84;51.71;100440.32;4351127;81;44067;-75
2022/03/14 07:12:49;;;;;;;49.85;23.80;;;;;;;6.08;50.88;100443.21;4368617;80;44458;-74
2022/03/14 07:18:50;;;;;;;50.88;24.27;;;;;;;5.60;53.42;100445.63;4382497;80;43756;-74
2022/03/14 07:24:52;;;;;;;53.78;25.60;;;;;;;6.93;49.37;100445.92;4404027;79;43244;-74
2022/03/14 07:30:54;;;;;;;56.00;26.77;;;;;;;6.37;51.06;100452.55;4457344;78;43603;-75
2022/03/14 07:36:56;;;;;;;50.40;24.27;;;;;;;6.60;50.75;100454.00;4453977;78;44485;-75
2022/03/14 07:43:01;;;;;;;52.17;24.32;;;;;;;7.08;48.85;100456.73;4455388;78;43795;-74
2022/03/14 07:49:05;;;;;;;46.90;22.82;;;;;;;7.10;48.96;100457.38;4460708;78;28470;-74
2022/03/14 07:55:08;;;;;;;48.87;23.73;;;;;;;7.46;46.99;100459.22;4459291;78;44521;-74
2022/03/14 08:01:09;;;;;;;52.20;24.52;;;;;;;7.44;47.80;100462.05;4457388;78;43942;-74
2022/03/14 08:07:11;;;;;;;51.98;23.73;;;;;;;7.46;47.40;100461.41;4420445;79;44417;-74
2022/03/14 08:13:12;;;;;;;46.75;20.68;;;;;;;7.67;46.28;100465.30;4393888;79;43857;-74
2022/03/14 08:19:13;;;;;;;45.30;22.65;;;;;;;7.98;45.43;100464.42;4397329;79;28500;-74
2022/03/14 08:25:15;;;;;;;45.45;22.37;;;;;;;8.09;44.65;100459.98;4385956;79;28471;-74
2022/03/14 08:31:21;;;;;;;44.73;21.10;;;;;;;8.45;44.01;100467.04;4397384;79;44192;-74
2022/03/14 08:37:22;;;;;;;39.92;20.43;;;;;;;8.57;42.80;100469.62;4401139;79;28464;-74
2022/03/14 08:43:23;;;;;;;45.80;19.92;;;;;;;8.90;41.46;100453.22;4447563;78;28533;-74
2022/03/14 08:49:25;;;;;;;43.50;21.20;;;;;;;8.90;41.42;100457.23;4362767;80;28549;-74
2022/03/14 08:55:27;;;;;;;47.50;22.62;;;;;;;9.11;41.35;100454.31;4441475;78;28477;-74
2022/03/14 09:01:28;;;;;;;45.43;20.85;;;;;;;9.29;39.99;100453.06;4376895;80;28497;-74
2022/03/14 09:07:31;;;;;;;45.50;21.80;;;;;;;9.74;40.05;100451.62;4368216;80;28511;-75
2022/03/14 09:13:32;;;;;;;49.50;20.30;;;;;;;10.06;39.58;100452.66;4349780;80;28504;-75
2022/03/14 09:19:34;;;;;;;42.40;19.40;;;;;;;10.57;38.62;100452.48;4309835;80;28467;-74
2022/03/14 09:25:36;;;;;;;39.03;19.15;;;;;;;11.01;37.73;100447.75;4365830;79;28541;-75
2022/03/14 09:31:37;;;;;;;40.98;19.35;;;;;;;11.29;36.80;100463.00;4390240;79;28523;-74
2022/03/14 09:37:41;;;;;;;39.23;18.15;;;;;;;11.77;36.68;100459.95;4401801;80;28519;-74
2022/03/14 09:43:46;;;;;;;36.03;18.82;;;;;;;11.84;35.90;100450.00;4396891;80;28475;-75
2022/03/14 09:49:48;;;;;;;37.78;18.32;;;;;;;12.06;35.46;100445.80;4415198;80;44492;-74
2022/03/14 09:55:49;;;;;;;37.55;18.15;;;;;;;12.24;35.88;100437.13;4427102;80;28497;-74
2022/03/14 10:01:52;;;;;;;37.13;17.15;;;;;;;12.35;34.95;100441.58;4421572;80;28514;-75
2022/03/14 10:07:53;;;;;;;40.35;18.98;;;;;;;12.65;34.91;100443.80;4404054;80;28459;-74
2022/03/14 10:13:56;;;;;;;33.98;16.52;;;;;;;12.42;34.11;100438.33;4400563;79;28575;-74
2022/03/14 10:20:06;;;;;;;37.40;17.12;;;;;;;12.81;34.19;100438.50;4375961;79;28536;-74
2022/03/14 10:26:12;;;;;;;29.12;14.38;;;;;;;12.84;33.59;100432.67;4387000;79;28472;-74
2022/03/14 10:32:31;;;;;;;34.00;16.60;;;;;;;13.16;32.80;100427.37;4383040;79;28516;-74
2022/03/14 10:38:43;;;;;;;37.95;16.95;;;;;;;13.50;32.66;100438.05;4365488;80;28534;-75
2022/03/14 10:44:45;;;;;;;27.75;15.23;;;;;;;13.76;31.92;100430.31;4365537;79;28555;-73
2022/03/14 10:50:46;;;;;;;36.88;15.98;;;;;;;14.06;31.42;100425.62;4371890;79;28519;-73
2022/03/14 10:57:06;;;;;;;34.92;16.67;;;;;;;14.03;30.76;100414.42;4371334;79;28478;-74
2022/03/14 11:03:07;;;;;;;30.52;15.28;;;;;;;14.08;29.91;100414.57;4369996;79;28490;-74
2022/03/14 11:09:09;;;;;;;30.62;16.10;;;;;;;14.38;29.32;100415.25;4397018;79;28491;-75
2022/03/14 11:15:12;;;;;;;27.62;14.40;;;;;;;13.93;30.56;100401.38;4423181;80;28634;-75
2022/03/14 11:21:15;;;;;;;23.22;12.15;;;;;;;13.49;30.29;100389.94;4409750;80;28559;-75
2022/03/14 11:27:21;;;;;;;23.32;11.15;;;;;;;13.82;29.19;100386.71;4410179;80;28526;-74
2022/03/14 11:33:23;;;;;;;20.63;9.67;;;;;;;14.32;28.62;100386.41;4409885;80;28518;-75
2022/03/14 11:39:27;;;;;;;19.50;8.95;;;;;;;14.43;27.45;100377.55;4403793;80;28489;-74
2022/03/14 11:45:30;;;;;;;14.60;7.47;;;;;;;14.60;26.95;100375.59;4420194;80;28512;-74
2022/03/14 11:51:41;;;;;;;19.73;8.23;;;;;;;14.39;25.74;100373.61;4422277;80;28501;-75
2022/03/14 11:57:42;;;;;;;19.70;7.55;;;;;;;15.00;25.20;100356.20;4422380;80;28605;-76
2022/03/14 12:03:53;;;;;;;14.18;7.28;;;;;;;14.94;24.95;100362.52;4433454;80;28546;-74
2022/03/14 12:09:56;;;;;;;14.65;7.00;;;;;;;15.28;24.08;100358.86;4409735;79;28578;-75
2022/03/14 12:15:57;;;;;;;12.50;6.12;;;;;;;15.32;24.60;100349.74;4405021;79;28641;-74
2022/03/14 12:22:04;;;;;;;16.48;7.03;;;;;;;15.26;24.20;100346.08;4386901;79;28515;-75
2022/03/14 12:28:35;;;;;;;14.95;7.40;;;;;;;15.17;24.29;100333.91;4392647;79;28523;-75
2022/03/14 12:34:39;;;;;;;13.55;7.40;;;;;;;15.33;24.91;100327.01;4393944;79;28505;-75
2022/03/14 12:40:45;;;;;;;15.88;7.85;;;;;;;15.54;24.56;100316.69;4385833;79;28533;-75
2022/03/14 12:46:50;;;;;;;15.85;8.45;;;;;;;15.69;24.68;100316.25;4391350;79;28480;-75
2022/03/14 12:53:01;;;;;;;14.78;7.62;;;;;;;15.99;24.77;100312.09;4393641;80;28508;-74
2022/03/14 12:59:10;;;;;;;16.87;7.58;;;;;;;16.16;24.30;100305.97;4392640;79;28562;-75
2022/03/14 13:05:11;;;;;;;16.65;8.28;;;;;;;16.23;24.04;100303.94;4391417;79;28533;-75
2022/03/14 13:11:13;;;;;;;13.45;6.92;;;;;;;16.44;24.25;100307.94;4376931;79;28471;-75
2022/03/14 13:17:25;;;;;;;16.07;7.97;;;;;;;16.38;24.48;100313.49;4402580;80;28521;-75
2022/03/14 13:23:27;;;;;;;14.43;7.80;;;;;;;16.12;24.21;100302.06;4383539;81;28489;-75
2022/03/14 13:29:33;;;;;;;8.15;4.50;;;;;;;16.35;24.41;100290.36;4381594;80;28480;-75
2022/03/14 13:35:44;;;;;;;11.12;5.50;;;;;;;16.72;24.29;100281.06;4394926;80;28488;-75
2022/03/14 13:41:46;;;;;;;10.03;5.33;;;;;;;16.85;23.99;100285.39;4410475;81;28485;-75
2022/03/14 13:47:57;;;;;;;10.32;4.60;;;;;;;16.84;23.75;100286.45;4392463;80;28569;-76
2022/03/14 13:54:23;;;;;;;10.28;5.20;;;;;;;17.14;23.65;100287.58;4398188;81;28529;-75
2022/03/14 14:00:27;;;;;;;15.05;8.53;;;;;;;17.05;23.99;100293.66;4382673;81;28469;-75
2022/03/14 14:06:28;;;;;;;15.50;7.78;;;;;;;16.73;23.79;100295.77;4376482;80;28510;-75
2022/03/14 14:12:32;;;;;;;6.92;4.17;;;;;;;17.03;23.88;100289.02;4426495;80;28558;-75
2022/03/14 14:18:35;;;;;;;10.60;5.83;;;;;;;16.99;23.23;100298.95;4437144;80;28485;-75
2022/03/14 14:24:37;;;;;;;11.45;6.47;;;;;;;16.95;23.64;100297.80;4432587;80;28534;-74
2022/03/14 14:30:52;;;;;;;11.50;5.60;;;;;;;17.03;23.67;100295.26;4425102;80;28486;-75
2022/03/14 14:36:54;;;;;;;12.58;6.00;;;;;;;16.63;23.31;100294.20;4421408;80;28515;-75
2022/03/14 14:42:56;;;;;;;11.25;5.53;;;;;;;16.85;23.80;100298.97;4400442;80;28515;-75
2022/03/14 14:48:57;;;;;;;11.03;5.85;;;;;;;16.83;23.29;100307.90;4440440;80;28523;-75
2022/03/14 14:55:00;;;;;;;11.90;5.90;;;;;;;16.72;23.06;100313.64;4421837;80;28482;-76
2022/03/14 15:01:01;;;;;;;9.38;5.25;;;;;;;16.90;22.98;100312.63;4418499;80;28509;-75
2022/03/14 15:07:03;;;;;;;13.43;6.83;;;;;;;16.64;23.40;100317.56;4426521;80;28493;-75
2022/03/14 15:13:05;;;;;;;15.65;6.78;;;;;;;16.91;23.08;100322.42;4410850;80;28501;-75
2022/03/14 15:19:07;;;;;;;13.43;6.72;;;;;;;16.87;23.05;100322.63;4389644;80;28540;-75
2022/03/14 15:25:10;;;;;;;10.38;4.92;;;;;;;16.79;23.16;100326.56;4376552;80;28500;-75
2022/03/14 15:31:13;;;;;;;12.53;5.78;;;;;;;16.62;23.23;100336.00;4387849;81;28471;-75
2022/03/14 15:37:16;;;;;;;13.60;6.42;;;;;;;16.80;23.23;100336.36;4377201;81;28564;-74
2022/03/14 15:43:18;;;;;;;13.93;6.40;;;;;;;16.62;23.16;100339.23;4368613;80;28452;-75
2022/03/14 15:49:19;;;;;;;11.73;5.90;;;;;;;16.70;23.42;100342.39;4381060;79;28504;-81
2022/03/14 15:55:21;;;;;;;15.20;6.87;;;;;;;16.76;23.39;100329.73;4389244;79;28527;-81
2022/03/14 16:01:25;;;;;;;15.48;6.33;;;;;;;16.44;23.51;100331.00;4360442;79;28529;-81
2022/03/14 16:07:28;;;;;;;12.70;5.92;;;;;;;16.43;23.72;100336.66;4351690;80;28482;-80
2022/03/14 16:13:31;;;;;;;15.83;6.78;;;;;;;16.39;23.74;100340.92;4405761;79;28572;-80
2022/03/14 16:19:33;;;;;;;13.60;6.72;;;;;;;16.32;24.18;100346.48;4415121;80;28479;-83
2022/03/14 16:25:36;;;;;;;11.48;5.47;;;;;;;15.89;24.14;100353.86;4420378;80;28515;-80
2022/03/14 16:31:38;;;;;;;16.97;6.67;;;;;;;15.70;24.28;100350.42;4412268;80;28475;-81
2022/03/14 16:37:41;;;;;;;14.65;6.90;;;;;;;15.88;24.61;100357.64;4421590;80;28501;-82
2022/03/14 16:43:50;;;;;;;15.23;7.05;;;;;;;15.43;24.60;100359.79;4436498;80;28513;-79
2022/03/14 16:49:52;;;;;;;16.45;7.03;;;;;;;15.55;24.84;100365.23;4425317;80;28485;-75
2022/03/14 16:55:53;;;;;;;19.32;7.78;;;;;;;15.31;25.28;100367.06;4438416;80;28477;-85
2022/03/14 17:01:55;;;;;;;15.50;7.83;;;;;;;15.01;25.48;100375.45;4412499;80;28474;-83
2022/03/14 17:07:58;;;;;;;18.17;6.90;;;;;;;14.79;25.57;100376.47;4407474;80;28469;-83
2022/03/14 17:14:00;;;;;;;15.88;6.80;;;;;;;14.80;25.99;100384.05;4397524;80;28513;-85
2022/03/14 17:20:03;;;;;;;13.55;6.90;;;;;;;14.69;26.15;100376.14;4373297;80;28496;-86
2022/03/14 17:26:04;;;;;;;14.20;6.85;;;;;;;14.40;26.82;100386.63;4392844;80;28497;-87
2022/03/14 17:32:08;;;;;;;16.07;8.53;;;;;;;14.20;27.16;100380.88;4361908;80;28532;-86
2022/03/14 17:38:10;;;;;;;15.53;6.85;;;;;;;13.98;27.19;100390.75;4339537;80;28544;-83
2022/03/14 17:44:11;;;;;;;16.30;7.08;;;;;;;13.74;27.59;100389.67;4371458;80;28504;-84
2022/03/14 17:50:15;;;;;;;13.55;6.50;;;;;;;13.38;27.81;100398.70;4363716;81;28535;-83
2022/03/14 17:56:17;;;;;;;15.00;6.62;;;;;;;13.28;27.67;100405.93;4344598;81;28452;-76
2022/03/14 18:02:19;;;;;;;14.63;6.65;;;;;;;13.04;28.02;100415.05;4369843;80;28531;-81
2022/03/14 18:08:20;;;;;;;15.03;6.60;;;;;;;12.70;28.25;100437.27;4369464;80;28449;-81
2022/03/14 18:14:22;;;;;;;16.17;7.33;;;;;;;12.46;29.08;100437.41;4331154;80;28522;-80
2022/03/14 18:20:25;;;;;;;17.65;6.35;;;;;;;12.19;29.57;100448.22;4428320;78;28562;-78
2022/03/14 18:26:27;;;;;;;15.75;6.83;;;;;;;11.86;30.25;100451.97;4459903;78;28549;-85
2022/03/14 18:32:31;;;;;;;17.50;6.97;;;;;;;11.66;29.93;100451.09;4401712;79;28548;-79
2022/03/14 18:38:35;;;;;;;17.92;5.97;;;;;;;11.45;30.40;100452.89;4405691;79;28524;-79
2022/03/14 18:44:38;;;;;;;12.40;5.75;;;;;;;11.24;30.39;100460.06;4380083;79;28543;-79
2022/03/14 18:50:39;;;;;;;14.87;6.50;;;;;;;10.86;30.95;100476.12;4368812;79;28479;-81
2022/03/14 18:56:41;;;;;;;15.48;6.83;;;;;;;10.72;31.30;100489.19;4392833;81;28540;-79
2022/03/14 19:02:43;;;;;;;14.50;6.50;;;;;;;10.40;31.76;100496.25;4387423;79;28566;-82
2022/03/14 19:08:46;;;;;;;18.98;6.87;;;;;;;10.25;31.76;100501.70;4381049;79;28596;-83
2022/03/14 19:14:47;;;;;;;19.98;7.37;;;;;;;10.02;31.56;100514.00;4382673;79;28563;-79
2022/03/14 19:20:50;;;;;;;16.55;7.70;;;;;;;9.86;31.74;100515.08;4382520;79;28554;-77
2022/03/14 19:26:51;;;;;;;16.77;7.35;;;;;;;9.86;32.00;100526.64;4391073;79;28548;-75
2022/03/14 19:32:55;;;;;;;17.37;7.65;;;;;;;9.85;32.21;100530.35;4405745;79;28564;-82
2022/03/14 19:38:56;;;;;;;16.30;6.90;;;;;;;9.71;32.40;100536.61;4396431;79;28557;-80
2022/03/14 19:44:58;;;;;;;20.08;8.48;;;;;;;9.59;32.98;100537.59;4397591;79;28514;-80
2022/03/14 19:51:00;;;;;;;20.10;8.38;;;;;;;9.51;34.23;100550.61;4381882;79;28533;-82
2022/03/14 19:57:04;;;;;;;28.60;12.33;;;;;;;9.60;33.11;100550.84;4394499;79;28610;-81
2022/03/14 20:03:07;;;;;;;30.30;13.60;;;;;;;9.73;31.51;100554.17;4390107;79;28521;-78
2022/03/14 20:09:11;;;;;;;34.98;15.10;;;;;;;9.69;31.47;100563.64;4395433;79;28550;-79
2022/03/14 20:15:18;;;;;;;33.95;16.05;;;;;;;9.65;31.51;100569.08;4378730;79;28518;-80
2022/03/14 20:21:18;;;;;;;40.48;17.87;;;;;;;9.64;31.32;100583.52;4428164;78;28534;-78
2022/03/14 20:27:20;;;;;;;41.68;18.82;;;;;;;9.74;31.07;100576.02;4431476;78;28580;-79
2022/03/14 20:33:22;;;;;;;44.03;19.02;;;;;;;9.68;30.54;100577.24;4437515;78;28539;-79
2022/03/14 20:39:26;;;;;;;34.10;13.68;;;;;;;9.73;30.17;100577.00;4429461;78;28477;-78
2022/03/14 20:45:27;;;;;;;32.70;15.55;;;;;;;9.40;32.42;100585.46;4364718;80;28551;-80
2022/03/14 20:51:29;;;;;;;39.27;16.90;;;;;;;9.25;32.50;100588.66;4361043;80;28551;-79
2022/03/14 20:57:32;;;;;;;36.10;15.88;;;;;;;8.96;35.81;100582.23;4358153;80;28522;-78
2022/03/14 21:03:35;;;;;;;38.38;16.75;;;;;;;8.82;35.81;100585.21;4353093;80;28446;-74
2022/03/14 21:09:36;;;;;;;40.58;16.17;;;;;;;8.57;36.93;100591.61;4336215;81;28533;-73
2022/03/14 21:15:37;;;;;;;31.45;14.73;;;;;;;8.58;36.21;100591.11;4464074;78;28485;-74
2022/03/14 21:21:40;;;;;;;35.92;15.78;;;;;;;8.64;36.47;100582.33;4379834;79;28544;-74
2022/03/14 21:27:42;;;;;;;29.63;13.88;;;;;;;8.48;36.37;100580.58;4468089;78;28513;-74
2022/03/14 21:33:45;;;;;;;37.90;14.68;;;;;;;8.28;37.60;100581.09;4374158;81;28508;-74
2022/03/14 21:39:46;;;;;;;32.10;12.50;;;;;;;8.37;36.99;100574.62;4366509;81;28512;-73
2022/03/14 21:45:48;;;;;;;32.17;14.60;;;;;;;8.33;37.65;100571.14;4365077;81;28520;-75
2022/03/14 21:51:51;;;;;;;33.40;14.78;;;;;;;8.64;36.73;100574.29;4374638;81;28528;-75
2022/03/14 21:57:53;;;;;;;36.60;15.10;;;;;;;8.46;35.93;100577.25;4364159;81;28517;-87
2022/03/14 22:03:56;;;;;;;35.03;15.43;;;;;;;8.47;36.81;100586.47;4352340;81;28519;-86
2022/03/14 22:09:59;;;;;;;36.95;15.30;;;;;;;8.45;36.68;100580.45;4341593;81;28541;-84
2022/03/14 22:16:00;;;;;;;34.48;14.23;;;;;;;8.47;36.12;100582.45;4379822;79;28546;-85
2022/03/14 22:22:02;;;;;;;41.05;15.40;;;;;;;8.58;35.66;100573.69;4382752;79;28450;-86
2022/03/14 22:28:05;;;;;;;31.10;13.62;;;;;;;8.46;35.21;100585.30;4388501;79;28464;-85
2022/03/14 22:34:07;;;;;;;30.12;13.40;;;;;;;8.45;34.24;100587.66;4379105;79;28522;-84
2022/03/14 22:40:10;;;;;;;32.35;13.35;;;;;;;8.36;34.75;100592.25;4391759;80;28472;-84
2022/03/14 22:46:11;;;;;;;29.55;12.90;;;;;;;8.27;34.45;100594.13;4385447;79;28521;-83
2022/03/14 22:52:12;;;;;;;28.32;12.58;;;;;;;8.40;33.93;100602.93;4383580;79;28528;-83
2022/03/14 22:58:16;;;;;;;28.42;12.80;;;;;;;8.24;34.77;100591.81;4389525;79;28552;-82
2022/03/14 23:17:01;;;;;;;33.98;12.73;;;;;;;7.93;36.47;100590.83;4402730;79;28943;-83
2022/03/14 23:23:05;;;;;;;28.00;12.23;;;;;;;8.00;36.72;100592.30;4407878;80;28441;-75
2022/03/14 23:29:13;;;;;;;27.42;12.47;;;;;;;8.10;35.35;100592.06;4412109;80;28509;-76
2022/03/14 23:35:15;;;;;;;25.25;11.88;;;;;;;7.99;35.35;100591.12;4382591;80;28488;-76
2022/03/14 23:41:19;;;;;;;25.80;12.28;;;;;;;7.68;36.59;100606.17;4379235;80;28448;-76
2022/03/14 23:47:21;;;;;;;26.42;12.47;;;;;;;7.61;35.18;100593.14;4398942;80;28527;-75
2022/03/14 23:53:22;;;;;;;29.30;11.93;;;;;;;7.82;34.75;100601.94;4413391;80;28438;-76
2022/03/14 23:59:23;;;;;;;29.23;12.25;;;;;;;7.71;34.81;100598.30;4393300;80;28559;-75
